createdAt,value
2019-05-11T00:02:01.107Z,10.40
2019-05-11T00:04:29.547Z,10.40
2019-05-11T00:06:58.162Z,10.30
2019-05-11T00:09:26.609Z,10.20
2019-05-11T00:11:55.051Z,10.20
2019-05-11T00:14:23.788Z,10.20
2019-05-11T00:16:52.244Z,10.20
2019-05-11T00:19:20.952Z,10.20
2019-05-11T00:21:50.681Z,10.20
2019-05-11T00:24:19.113Z,10.20
2019-05-11T00:26:47.955Z,10.10
2019-05-11T00:29:17.254Z,10.10
2019-05-11T00:31:46.976Z,10.10
2019-05-11T00:34:15.612Z,10.10
2019-05-11T00:36:45.250Z,10.00
2019-05-11T00:39:13.679Z,10.00
2019-05-11T00:41:42.383Z,10.10
2019-05-11T00:44:14.916Z,10.10
2019-05-11T00:46:43.507Z,10.00
2019-05-11T00:49:12.028Z,10.10
2019-05-11T00:51:41.034Z,10.10
2019-05-11T00:54:11.285Z,10.10
2019-05-11T00:56:40.015Z,10.10
2019-05-11T00:59:21.292Z,10.10
2019-05-11T01:01:39.948Z,10.10
2019-05-11T01:04:09.745Z,10.10
2019-05-11T01:06:39.815Z,10.00
2019-05-11T01:09:08.513Z,9.90
2019-05-11T01:11:37.123Z,9.90
2019-05-11T01:14:06.922Z,10.00
2019-05-11T01:16:35.556Z,9.90
2019-05-11T01:19:04.370Z,9.90
2019-05-11T01:21:33.393Z,9.90
2019-05-11T01:24:01.819Z,9.90
2019-05-11T01:26:30.506Z,9.90
2019-05-11T01:29:00.184Z,9.90
2019-05-11T01:31:28.773Z,9.90
2019-05-11T01:33:57.254Z,9.80
2019-05-11T01:36:28.203Z,9.80
2019-05-11T01:38:56.785Z,9.80
2019-05-11T01:41:25.410Z,9.80
2019-05-11T01:43:55.512Z,9.90
2019-05-11T01:46:24.186Z,9.90
2019-05-11T01:48:52.782Z,9.80
2019-05-11T01:51:22.478Z,9.80
2019-05-11T01:53:51.050Z,9.90
2019-05-11T01:56:19.494Z,9.90
2019-05-11T01:58:49.447Z,9.80
2019-05-11T02:01:18.063Z,9.90
2019-05-11T02:03:46.717Z,9.90
2019-05-11T02:06:16.853Z,9.90
2019-05-11T02:08:45.442Z,9.90
2019-05-11T02:11:16.132Z,9.90
2019-05-11T02:13:45.762Z,10.00
2019-05-11T02:16:14.346Z,9.90
2019-05-11T02:18:42.917Z,10.00
2019-05-11T02:21:11.817Z,9.90
2019-05-11T02:23:40.422Z,9.90
2019-05-11T02:26:09.104Z,9.90
2019-05-11T02:28:40.318Z,9.90
2019-05-11T02:31:08.741Z,10.00
2019-05-11T02:33:38.949Z,10.00
2019-05-11T02:36:09.694Z,9.90
2019-05-11T02:38:39.196Z,9.90
2019-05-11T02:41:07.964Z,9.90
2019-05-11T02:43:36.981Z,10.00
2019-05-11T02:46:05.467Z,9.90
2019-05-11T02:48:34.197Z,9.90
2019-05-11T02:51:03.647Z,9.90
2019-05-11T02:53:34.049Z,9.90
2019-05-11T02:56:05.009Z,9.90
2019-05-11T02:58:33.697Z,9.90
2019-05-11T03:01:02.186Z,9.90
2019-05-11T03:03:32.057Z,9.90
2019-05-11T03:06:00.732Z,9.90
2019-05-11T03:08:29.224Z,9.90
2019-05-11T03:11:00.083Z,9.90
2019-05-11T03:13:28.671Z,9.90
2019-05-11T03:15:57.079Z,9.90
2019-05-11T03:18:39.038Z,10.00
2019-05-11T03:21:07.460Z,10.00
2019-05-11T03:23:36.948Z,10.00
2019-05-11T03:26:12.030Z,10.10
2019-05-11T03:28:40.658Z,10.00
2019-05-11T03:31:09.152Z,10.10
2019-05-11T03:33:37.772Z,10.10
2019-05-11T03:36:06.214Z,10.10
2019-05-11T03:38:34.659Z,10.10
2019-05-11T03:41:03.758Z,10.10
2019-05-11T03:43:32.205Z,10.00
2019-05-11T03:46:00.627Z,10.10
2019-05-11T03:48:29.277Z,10.10
2019-05-11T03:50:57.819Z,9.90
2019-05-11T03:53:27.747Z,9.90
2019-05-11T03:56:05.896Z,9.90
2019-05-11T03:58:40.998Z,9.90
2019-05-11T04:01:09.590Z,9.90
2019-05-11T04:03:38.015Z,9.90
2019-05-11T04:06:06.486Z,9.80
2019-05-11T04:08:37.015Z,9.80
2019-05-11T04:11:05.513Z,9.80
2019-05-11T04:13:35.311Z,9.70
2019-05-11T04:16:05.373Z,9.70
2019-05-11T04:18:33.871Z,9.70
2019-05-11T04:21:02.313Z,9.70
2019-05-11T04:23:31.823Z,9.70
2019-05-11T04:26:00.258Z,9.80
2019-05-11T04:28:29.792Z,9.70
2019-05-11T04:30:59.898Z,9.70
2019-05-11T04:33:33.012Z,9.70
2019-05-11T04:35:59.674Z,9.70
2019-05-11T04:38:31.275Z,9.70
2019-05-11T04:40:59.728Z,9.70
2019-05-11T04:43:28.181Z,9.70
2019-05-11T04:45:59.701Z,9.70
2019-05-11T04:48:30.328Z,9.80
2019-05-11T04:50:58.743Z,9.90
2019-05-11T04:53:28.090Z,9.90
2019-05-11T04:55:56.686Z,9.90
2019-05-11T04:58:25.141Z,9.90
2019-05-11T05:00:54.132Z,10.00
2019-05-11T05:03:39.795Z,10.10
2019-05-11T05:05:56.010Z,10.10
2019-05-11T05:08:26.495Z,10.10
2019-05-11T05:10:58.589Z,10.10
2019-05-11T05:13:29.597Z,10.20
2019-05-11T05:15:55.338Z,10.20
2019-05-11T05:18:23.766Z,10.20
2019-05-11T05:20:52.425Z,10.30
2019-05-11T05:23:20.843Z,10.20
2019-05-11T05:25:49.290Z,10.20
2019-05-11T05:28:18.210Z,10.20
2019-05-11T05:30:46.684Z,10.30
2019-05-11T05:33:15.139Z,10.30
2019-05-11T05:35:43.778Z,10.30
2019-05-11T05:38:12.244Z,10.40
2019-05-11T05:40:40.698Z,10.50
2019-05-11T05:43:09.219Z,10.60
2019-05-11T05:45:37.637Z,10.50
2019-05-11T05:48:06.146Z,10.60
2019-05-11T05:50:36.965Z,10.60
2019-05-11T05:53:05.461Z,10.70
2019-05-11T05:55:33.926Z,10.70
2019-05-11T05:58:02.644Z,10.70
2019-05-11T06:00:31.205Z,10.70
2019-05-11T06:02:59.643Z,10.70
2019-05-11T06:05:28.274Z,10.70
2019-05-11T06:07:56.966Z,10.80
2019-05-11T06:10:25.427Z,10.80
2019-05-11T06:12:54.079Z,10.80
2019-05-11T06:15:22.704Z,10.90
2019-05-11T06:17:51.158Z,10.90
2019-05-11T06:20:19.850Z,10.90
2019-05-11T06:22:48.309Z,11.00
2019-05-11T06:25:17.122Z,11.10
2019-05-11T06:27:45.758Z,11.10
2019-05-11T06:30:14.325Z,11.10
2019-05-11T06:32:42.761Z,11.10
2019-05-11T06:35:11.522Z,11.00
2019-05-11T06:37:40.028Z,11.00
2019-05-11T06:40:08.992Z,11.00
2019-05-11T06:42:39.298Z,11.10
2019-05-11T06:45:08.185Z,11.10
2019-05-11T06:47:37.585Z,11.20
2019-05-11T06:50:06.683Z,11.20
2019-05-11T06:52:35.127Z,11.20
2019-05-11T06:55:03.883Z,11.30
2019-05-11T06:57:32.436Z,11.30
2019-05-11T07:00:00.869Z,11.30
2019-05-11T07:02:29.291Z,11.40
2019-05-11T07:04:58.177Z,11.40
2019-05-11T07:07:26.604Z,11.50
2019-05-11T07:09:55.071Z,11.60
2019-05-11T07:12:27.341Z,11.70
2019-05-11T07:14:54.183Z,11.60
2019-05-11T07:17:24.223Z,11.60
2019-05-11T07:19:57.910Z,11.50
2019-05-11T07:22:26.329Z,11.50
2019-05-11T07:24:54.828Z,11.40
2019-05-11T07:27:23.497Z,11.40
2019-05-11T07:29:52.053Z,11.30
2019-05-11T07:32:25.769Z,11.30
2019-05-11T07:34:50.848Z,11.40
2019-05-11T07:37:19.270Z,11.40
2019-05-11T07:39:48.775Z,11.40
2019-05-11T07:42:20.928Z,11.40
2019-05-11T07:44:49.405Z,11.30
2019-05-11T07:47:18.640Z,11.30
2019-05-11T07:49:48.892Z,11.30
2019-05-11T07:52:18.169Z,11.40
2019-05-11T07:54:52.593Z,11.40
2019-05-11T07:57:18.674Z,11.40
2019-05-11T07:59:48.648Z,11.40
2019-05-11T08:02:18.983Z,11.30
2019-05-11T08:04:49.624Z,11.30
2019-05-11T08:07:18.285Z,11.20
2019-05-11T08:09:48.306Z,11.20
2019-05-11T08:12:19.206Z,11.30
2019-05-11T08:15:00.839Z,11.30
2019-05-11T08:17:18.798Z,11.30
2019-05-11T08:19:51.464Z,11.30
2019-05-11T08:25:01.419Z,11.40
2019-05-11T08:27:31.803Z,11.40
2019-05-11T08:30:02.359Z,11.50
2019-05-11T08:32:31.160Z,11.40
2019-05-11T08:34:59.609Z,11.40
2019-05-11T08:37:28.606Z,11.40
2019-05-11T08:39:58.530Z,11.40
2019-05-11T08:42:28.905Z,11.50
2019-05-11T08:45:15.350Z,11.50
2019-05-11T08:47:28.987Z,11.50
2019-05-11T08:49:58.924Z,11.50
2019-05-11T08:52:28.645Z,11.60
2019-05-11T08:54:57.828Z,11.60
2019-05-11T08:57:28.471Z,11.70
2019-05-11T08:59:58.287Z,11.70
2019-05-11T09:02:27.754Z,11.80
2019-05-11T09:04:58.974Z,11.90
2019-05-11T09:07:30.145Z,11.90
2019-05-11T09:10:00.559Z,12.00
2019-05-11T09:12:29.429Z,12.00
2019-05-11T09:15:01.530Z,12.10
2019-05-11T09:17:30.053Z,12.20
2019-05-11T09:19:59.057Z,12.30
2019-05-11T09:22:28.975Z,12.40
2019-05-11T09:24:58.254Z,12.60
2019-05-11T09:27:28.647Z,12.80
2019-05-11T09:29:59.138Z,13.00
2019-05-11T09:32:28.547Z,13.30
2019-05-11T09:34:58.054Z,13.80
2019-05-11T09:37:29.265Z,14.00
2019-05-11T09:39:58.347Z,14.40
2019-05-11T09:42:28.610Z,14.60
2019-05-11T09:44:58.506Z,15.10
2019-05-11T09:47:27.924Z,16.10
2019-05-11T09:49:58.272Z,16.60
2019-05-11T09:52:32.386Z,17.00
2019-05-11T09:55:00.906Z,17.20
2019-05-11T09:57:29.569Z,17.20
2019-05-11T09:59:59.163Z,17.50
2019-05-11T10:02:28.190Z,17.30
2019-05-11T10:04:57.813Z,17.50
2019-05-11T10:07:28.608Z,17.70
2019-05-11T10:09:58.560Z,18.20
2019-05-11T10:12:28.673Z,18.80
2019-05-11T10:14:59.189Z,18.30
2019-05-11T10:17:28.859Z,17.50
2019-05-11T10:19:58.196Z,16.60
2019-05-11T10:22:28.579Z,16.50
2019-05-11T10:24:58.233Z,17.20
2019-05-11T10:27:28.338Z,18.00
2019-05-11T10:29:58.939Z,18.10
2019-05-11T10:32:28.766Z,18.20
2019-05-11T10:34:58.374Z,18.50
2019-05-11T10:37:28.272Z,18.50
2019-05-11T10:39:57.762Z,18.00
2019-05-11T10:42:28.397Z,18.10
2019-05-11T10:44:58.257Z,18.40
2019-05-11T10:47:27.824Z,18.30
2019-05-11T10:49:57.894Z,18.70
2019-05-11T10:52:28.597Z,18.70
2019-05-11T10:54:58.528Z,18.30
2019-05-11T10:57:33.604Z,17.60
2019-05-11T11:00:02.212Z,17.90
2019-05-11T11:02:30.626Z,18.40
2019-05-11T11:05:00.459Z,18.90
2019-05-11T11:07:29.096Z,19.60
2019-05-11T11:09:58.100Z,19.70
2019-05-11T11:12:27.882Z,19.70
2019-05-11T11:14:58.725Z,18.80
2019-05-11T11:17:28.732Z,17.60
2019-05-11T11:20:08.750Z,16.90
2019-05-11T11:22:43.393Z,16.70
2019-05-11T11:25:38.662Z,16.50
2019-05-11T11:28:08.740Z,16.20
2019-05-11T11:30:39.721Z,15.90
2019-05-11T11:33:08.226Z,15.80
2019-05-11T11:35:38.509Z,16.80
2019-05-11T11:38:09.279Z,17.00
2019-05-11T11:40:38.672Z,16.90
2019-05-11T11:43:08.662Z,16.50
2019-05-11T11:45:40.243Z,16.30
2019-05-11T11:48:09.653Z,16.80
2019-05-11T11:50:38.150Z,16.90
2019-05-11T11:53:08.422Z,16.60
2019-05-11T11:55:38.996Z,16.30
2019-05-11T11:58:08.258Z,16.10
2019-05-11T12:00:39.262Z,16.10
2019-05-11T12:03:08.122Z,16.50
2019-05-11T12:05:38.632Z,17.30
2019-05-11T12:08:09.334Z,17.60
2019-05-11T12:10:38.082Z,18.30
2019-05-11T12:13:08.621Z,18.80
2019-05-11T12:15:39.306Z,18.00
2019-05-11T12:18:08.366Z,17.30
2019-05-11T12:20:39.002Z,17.40
2019-05-11T12:23:08.800Z,18.40
2019-05-11T12:25:40.346Z,18.50
2019-05-11T12:28:08.069Z,18.50
2019-05-11T12:30:37.649Z,18.50
2019-05-11T12:33:08.240Z,18.80
2019-05-11T12:35:37.792Z,19.50
2019-05-11T12:38:07.838Z,20.20
2019-05-11T12:40:38.664Z,20.70
2019-05-11T12:43:08.142Z,21.10
2019-05-11T12:45:37.668Z,20.60
2019-05-11T12:48:08.932Z,18.90
2019-05-11T12:50:37.905Z,17.70
2019-05-11T12:53:08.038Z,16.70
2019-05-11T12:55:37.979Z,16.10
2019-05-11T12:58:08.594Z,16.10
2019-05-11T13:00:39.193Z,16.50
2019-05-11T13:03:08.175Z,16.90
2019-05-11T13:05:37.787Z,17.50
2019-05-11T13:08:07.951Z,18.40
2019-05-11T13:10:37.788Z,18.60
2019-05-11T13:13:08.669Z,18.80
2019-05-11T13:15:38.680Z,19.50
2019-05-11T13:18:08.419Z,20.20
2019-05-11T13:20:37.787Z,19.80
2019-05-11T13:23:07.980Z,19.80
2019-05-11T13:25:38.866Z,19.80
2019-05-11T13:28:08.567Z,19.50
2019-05-11T13:30:41.663Z,19.00
2019-05-11T13:33:10.117Z,18.10
2019-05-11T13:35:38.521Z,18.20
2019-05-11T13:38:08.669Z,18.60
2019-05-11T13:40:38.260Z,18.80
2019-05-11T13:43:08.302Z,18.60
2019-05-11T13:45:38.755Z,18.50
2019-05-11T13:48:10.138Z,19.20
2019-05-11T13:50:38.848Z,19.30
2019-05-11T13:53:07.767Z,19.60
2019-05-11T13:55:38.592Z,19.40
2019-05-11T13:58:08.419Z,19.00
2019-05-11T14:00:38.100Z,19.10
2019-05-11T14:03:08.361Z,19.10
2019-05-11T14:05:38.280Z,18.60
2019-05-11T14:08:08.168Z,19.00
2019-05-11T14:10:38.349Z,18.40
2019-05-11T14:13:09.051Z,17.90
2019-05-11T14:15:37.774Z,18.00
2019-05-11T14:18:09.431Z,17.90
2019-05-11T14:20:37.981Z,17.40
2019-05-11T14:23:07.742Z,16.80
2019-05-11T14:25:38.093Z,16.50
2019-05-11T14:28:10.013Z,16.40
2019-05-11T14:30:38.823Z,16.10
2019-05-11T14:33:08.700Z,15.70
2019-05-11T14:35:39.092Z,15.40
2019-05-11T14:38:08.034Z,15.20
2019-05-11T14:40:38.745Z,15.10
2019-05-11T14:43:08.958Z,15.30
2019-05-11T14:45:38.080Z,16.10
2019-05-11T14:48:22.153Z,16.50
2019-05-11T14:50:38.614Z,16.50
2019-05-11T14:53:08.638Z,16.80
2019-05-11T14:55:38.244Z,17.40
2019-05-11T14:58:08.625Z,17.50
2019-05-11T15:00:39.141Z,17.20
2019-05-11T15:03:07.994Z,16.90
2019-05-11T15:05:37.958Z,16.60
2019-05-11T15:08:08.743Z,15.80
2019-05-11T15:10:38.262Z,15.10
2019-05-11T15:13:08.133Z,14.60
2019-05-11T15:15:36.708Z,14.20
2019-05-11T15:18:05.192Z,13.80
2019-05-11T15:20:48.117Z,13.50
2019-05-11T15:23:18.027Z,13.40
2019-05-11T15:25:48.571Z,13.40
2019-05-11T15:28:18.096Z,13.40
2019-05-11T15:30:48.307Z,13.50
2019-05-11T15:33:18.329Z,13.70
2019-05-11T15:35:47.921Z,13.90
2019-05-11T15:38:17.912Z,14.10
2019-05-11T15:40:48.600Z,14.30
2019-05-11T15:43:17.908Z,14.60
2019-05-11T15:45:48.577Z,14.70
2019-05-11T15:48:18.743Z,14.70
2019-05-11T15:50:48.604Z,14.70
2019-05-11T15:53:18.013Z,14.70
2019-05-11T15:55:47.349Z,14.70
2019-05-11T15:58:21.452Z,14.80
2019-05-11T16:00:48.200Z,14.90
2019-05-11T16:03:18.690Z,14.90
2019-05-11T16:05:47.961Z,15.00
2019-05-11T16:08:18.646Z,15.20
2019-05-11T16:10:48.893Z,15.30
2019-05-11T16:13:18.121Z,15.40
2019-05-11T16:15:47.690Z,15.50
2019-05-11T16:18:18.941Z,15.50
2019-05-11T16:20:48.203Z,15.40
2019-05-11T16:23:20.025Z,15.30
2019-05-11T16:25:48.944Z,15.20
2019-05-11T16:28:19.261Z,15.20
2019-05-11T16:30:48.239Z,15.10
2019-05-11T16:33:17.998Z,15.00
2019-05-11T16:35:49.041Z,14.90
2019-05-11T16:38:18.715Z,14.80
2019-05-11T16:40:48.075Z,14.60
2019-05-11T16:43:18.952Z,14.60
2019-05-11T16:45:54.582Z,14.60
2019-05-11T16:48:23.007Z,14.60
2019-05-11T16:50:53.109Z,14.60
2019-05-11T16:53:21.962Z,14.50
2019-05-11T16:55:50.447Z,14.50
2019-05-11T16:58:19.753Z,14.50
2019-05-11T17:00:49.316Z,14.60
2019-05-11T17:03:18.187Z,14.70
2019-05-11T17:05:48.476Z,14.80
2019-05-11T17:08:18.729Z,15.00
2019-05-11T17:10:58.728Z,15.10
2019-05-11T17:13:27.570Z,15.20
2019-05-11T17:15:58.323Z,15.30
2019-05-11T17:18:28.577Z,15.40
2019-05-11T17:20:58.402Z,15.50
2019-05-11T17:23:30.894Z,15.50
2019-05-11T17:25:58.155Z,15.40
2019-05-11T17:28:26.739Z,15.30
2019-05-11T17:30:55.654Z,15.20
2019-05-11T17:33:25.182Z,15.10
2019-05-11T17:35:58.192Z,15.00
2019-05-11T17:38:28.031Z,14.90
2019-05-11T17:40:57.708Z,14.80
2019-05-11T17:43:28.102Z,14.70
2019-05-11T17:45:58.522Z,14.70
2019-05-11T17:48:28.148Z,14.60
2019-05-11T17:50:58.271Z,14.50
2019-05-11T17:53:28.606Z,14.50
2019-05-11T17:55:57.897Z,14.40
2019-05-11T17:58:26.819Z,14.40
2019-05-11T18:00:55.317Z,14.40
2019-05-11T18:03:23.738Z,14.40
2019-05-11T18:05:52.611Z,14.40
2019-05-11T18:08:21.106Z,14.40
2019-05-11T18:10:49.566Z,14.30
2019-05-11T18:13:18.063Z,14.30
2019-05-11T18:15:46.800Z,14.10
2019-05-11T18:18:15.240Z,14.10
2019-05-11T18:20:43.889Z,14.10
2019-05-11T18:23:12.328Z,14.00
2019-05-11T18:25:40.819Z,13.90
2019-05-11T18:28:09.430Z,13.90
2019-05-11T18:30:38.787Z,13.80
2019-05-11T18:33:08.374Z,13.80
2019-05-11T18:35:37.142Z,13.70
2019-05-11T18:38:08.338Z,13.60
2019-05-11T18:40:38.150Z,13.60
2019-05-11T18:43:08.592Z,13.60
2019-05-11T18:45:38.271Z,13.50
2019-05-11T18:48:08.012Z,13.50
2019-05-11T18:50:38.452Z,13.40
2019-05-11T18:53:09.140Z,13.30
2019-05-11T18:55:38.330Z,13.30
2019-05-11T18:58:06.772Z,13.20
2019-05-11T19:00:35.314Z,13.10
2019-05-11T19:03:04.042Z,13.10
2019-05-11T19:05:32.862Z,13.00
2019-05-11T19:08:01.348Z,13.00
2019-05-11T19:10:30.205Z,12.90
2019-05-11T19:12:59.191Z,12.80
2019-05-11T19:15:27.648Z,12.80
2019-05-11T19:17:58.092Z,12.70
2019-05-11T19:20:28.346Z,12.60
2019-05-11T19:22:58.997Z,12.60
2019-05-11T19:25:27.774Z,12.50
2019-05-11T19:27:56.203Z,12.50
2019-05-11T19:30:24.747Z,12.30
2019-05-11T19:32:53.628Z,12.30
2019-05-11T19:35:41.469Z,12.20
2019-05-11T19:38:12.959Z,12.20
2019-05-11T19:40:42.927Z,12.20
2019-05-11T19:43:11.427Z,12.20
2019-05-11T19:45:42.286Z,12.10
2019-05-11T19:48:10.825Z,12.00
2019-05-11T19:50:40.833Z,12.00
2019-05-11T19:53:09.536Z,11.90
2019-05-11T19:55:37.954Z,11.90
2019-05-11T19:58:06.449Z,11.80
2019-05-11T20:00:37.881Z,11.80
2019-05-11T20:03:08.803Z,11.70
2019-05-11T20:05:38.084Z,11.70
2019-05-11T20:08:07.956Z,11.60
2019-05-11T20:10:38.319Z,11.60
2019-05-11T20:13:08.168Z,11.60
2019-05-11T20:15:38.163Z,11.50
2019-05-11T20:18:08.010Z,11.50
2019-05-11T20:20:37.653Z,11.50
2019-05-11T20:23:07.837Z,11.40
2019-05-11T20:25:37.996Z,11.40
2019-05-11T20:28:08.452Z,11.30
2019-05-11T20:30:41.778Z,11.20
2019-05-11T20:33:10.742Z,11.20
2019-05-11T20:35:39.183Z,11.10
2019-05-11T20:38:08.684Z,11.10
2019-05-11T20:40:38.931Z,11.00
2019-05-11T20:43:08.104Z,11.00
2019-05-11T20:45:37.795Z,10.90
2019-05-11T20:48:07.975Z,10.90
2019-05-11T20:50:37.912Z,10.80
2019-05-11T20:53:08.402Z,10.80
2019-05-11T20:55:37.637Z,10.70
2019-05-11T20:58:08.449Z,10.70
2019-05-11T21:00:38.336Z,10.50
2019-05-11T21:03:08.881Z,10.50
2019-05-11T21:05:37.367Z,10.50
2019-05-11T21:08:08.304Z,10.50
2019-05-11T21:10:38.577Z,10.40
2019-05-11T21:13:08.590Z,10.40
2019-05-11T21:15:38.450Z,10.30
2019-05-11T21:18:07.896Z,10.20
2019-05-11T21:20:38.087Z,10.20
2019-05-11T21:23:08.177Z,10.20
2019-05-11T21:25:37.856Z,10.10
2019-05-11T21:28:08.554Z,10.10
2019-05-11T21:30:39.667Z,10.10
2019-05-11T21:33:08.621Z,10.00
2019-05-11T21:35:38.597Z,10.00
2019-05-11T21:38:08.431Z,9.90
2019-05-11T21:40:38.117Z,9.80
2019-05-11T21:43:08.700Z,9.70
2019-05-11T21:45:41.225Z,9.70
2019-05-11T21:48:09.660Z,9.60
2019-05-11T21:50:38.875Z,9.70
2019-05-11T21:53:08.164Z,9.60
2019-05-11T21:55:37.884Z,9.50
2019-05-11T21:58:08.885Z,9.50
2019-05-11T22:00:38.743Z,9.40
2019-05-11T22:03:09.897Z,9.30
2019-05-11T22:05:41.687Z,9.30
2019-05-11T22:08:10.116Z,9.20
2019-05-11T22:10:38.731Z,9.10
2019-05-11T22:13:07.385Z,9.10
2019-05-11T22:15:38.328Z,9.10
2019-05-11T22:18:07.997Z,9.00
2019-05-11T22:20:40.488Z,9.00
2019-05-11T22:23:08.439Z,8.90
2019-05-11T22:25:38.203Z,9.00
2019-05-11T22:28:08.474Z,9.00
2019-05-11T22:30:39.084Z,9.00
2019-05-11T22:33:08.755Z,9.00
2019-05-11T22:35:38.580Z,9.00
2019-05-11T22:38:08.362Z,9.10
2019-05-11T22:40:38.397Z,9.00
2019-05-11T22:43:09.267Z,8.90
2019-05-11T22:45:38.294Z,8.80
2019-05-11T22:48:08.052Z,8.80
2019-05-11T22:50:38.427Z,8.70
2019-05-11T22:53:08.644Z,8.70
2019-05-11T22:55:38.162Z,8.60
2019-05-11T22:58:08.569Z,8.50
2019-05-11T23:00:42.977Z,8.60
2019-05-11T23:03:11.845Z,8.60
2019-05-11T23:05:41.860Z,8.50
2019-05-11T23:08:11.033Z,8.50
2019-05-11T23:10:39.504Z,8.40
2019-05-11T23:13:11.106Z,8.30
2019-05-11T23:15:40.647Z,8.30
2019-05-11T23:18:09.224Z,8.20
2019-05-11T23:20:38.687Z,8.20
2019-05-11T23:23:08.825Z,8.10
2019-05-11T23:25:37.471Z,8.10
2019-05-11T23:28:05.975Z,8.00
2019-05-11T23:30:34.622Z,7.90
2019-05-11T23:33:03.044Z,7.90
2019-05-11T23:35:31.831Z,7.90
2019-05-11T23:38:00.728Z,7.80
2019-05-11T23:40:29.134Z,7.80
2019-05-11T23:42:57.946Z,7.80
2019-05-11T23:45:28.027Z,7.70
2019-05-11T23:47:58.668Z,7.70
2019-05-11T23:50:28.222Z,7.70
2019-05-11T23:53:06.443Z,7.70
2019-05-11T23:55:29.129Z,7.60
2019-05-11T23:57:57.804Z,7.60
